Share

Aşgabat, Türkmenistan

Ashgabat (UTAA) Elev 689 ft | 37.98 °N, 58.37 °E | Change Station

Current weather conditions updated 4 minutes ago

Clear
Açık
59
Feels Like 59
N
2
Rüzgar Değişken Rüzgar from Değişken
Gün Doğumu 6:27 AM
Gün Batımı 7:45 PM
Ay Şişkin Ay

Today is forecast to be nearly the same temperature as yesterday.

Basınç 30.06 inç
Görüş Uzaklığı 6.2 mil
Bulutlar Açık
Çiğ noktası 36
Nem oranı 42%
Yağış 0.00 inç
Kar Kalınlığı Not available.
1 out of 16
Pollen Not available.
Hava Kalitesi Not available.
Flu Activity Not available.
METAR UTAA 180300Z VRB01MPS 9999 SKC 15/02 Q1018 NOSIG

More Conditions Fewer Conditions

Basınç 30.06 inç
Görüş Uzaklığı 6.2 mil
Bulutlar Açık
Çiğ noktası 36
Nem oranı 42%
Yağış 0.00 inç
Kar Kalınlığı Not available.
1 out of 16
Pollen Not available.
Hava Kalitesi Not available.
Flu Activity Not available.
METAR UTAA 180300Z VRB01MPS 9999 SKC 15/02 Q1018 NOSIG

More Conditions Fewer Conditions

10-Day Forecast

Almanac

Gökbilim

Apr. 18, 2014 Rise Set
Gerçek Zaman 06:27 TMT 19:45 TMT
Günlük Tan 06:00 TMT 20:12 TMT
Deniz Tanı 05:27 TMT 20:45 TMT
Geceyarısı Yıldız Zamanı 04:53 TMT 21:19 TMT
Ay 23:04 TMT 08:30 TMT
Görünür Işığın Uzunluğu 14h 12m
Günün Uzunluğu
13h 17m
Tomorrow will be 2m 18s longer.
Şişkin Ay, 91% of the Moon is Illuminated
Apr 17
Şişkin Ay
Apr 22
Son Hilãl
Apr 29
New
May 6
İlk Hilãl
May 14
Dolunay

Yesterday's Extremes

Country Highs Country Lows

Community

  • SUNRISE THROUGH THE TREES.
    SUNRISE THROUGH THE TREES.
  • Dog Wood Blossoms
    Dog Wood Blossoms
  • Morning Light
    Morning Light
  • New Day
    New Day
  • Lake Michigan Sunrise
    Lake Michigan Sunrise

WunderPhotos

Upload Photos

1,702,234 photos uploaded!

WunderBlogs® & News

Nearby

Kar Kalınlığı

Not available.

Coastal Water Temperatures

Yer Sıcaklık
No Stations Reporting

Earthquake Activity

Şehir Distance Mag. Time & Date
No recent earthquake activity has been reported nearby.
Minimum magnitude displayed is 2.5.

Nearby Weather Stations

There are no personal weather stations in this area.

What do you think?

We're not finished. Please let us know what you like, what you don't like, and what you are still missing.